createdAt,value
2022-09-20T00:02:06.590Z,60.81
2022-09-20T00:04:34.750Z,61.92
2022-09-20T00:07:02.935Z,62.12
2022-09-20T00:09:31.115Z,62.41
2022-09-20T00:11:59.911Z,62.87
2022-09-20T00:14:28.793Z,63.25
2022-09-20T00:16:57.095Z,63.22
2022-09-20T00:19:25.968Z,63.48
2022-09-20T00:21:54.314Z,63.85
2022-09-20T00:24:22.615Z,64.08
2022-09-20T00:26:52.025Z,63.99
2022-09-20T00:29:20.197Z,64.09
2022-09-20T00:31:48.494Z,64.17
2022-09-20T00:34:35.486Z,64.72
2022-09-20T00:37:04.427Z,64.87
2022-09-20T00:39:33.213Z,64.85
2022-09-20T00:42:01.371Z,64.96
2022-09-20T00:44:56.379Z,64.73
2022-09-20T00:47:33.664Z,64.92
2022-09-20T00:50:19.719Z,64.84
2022-09-20T00:52:51.077Z,64.84
2022-09-20T00:55:20.372Z,64.80
2022-09-20T00:57:49.061Z,64.65
2022-09-20T01:00:17.546Z,64.66
2022-09-20T01:02:54.945Z,64.60
2022-09-20T01:05:24.648Z,64.88
2022-09-20T01:07:54.867Z,64.87
2022-09-20T01:10:23.379Z,64.52
2022-09-20T01:12:53.271Z,64.63
2022-09-20T01:15:23.607Z,64.25
2022-09-20T01:17:55.337Z,64.18
2022-09-20T01:20:33.461Z,63.91
2022-09-20T01:23:07.297Z,63.71
2022-09-20T01:26:13.306Z,64.01
2022-09-20T01:28:45.091Z,63.90
2022-09-20T01:31:24.547Z,63.97
2022-09-20T01:34:42.123Z,63.79
2022-09-20T01:37:16.249Z,62.42
2022-09-20T01:40:13.175Z,62.14
2022-09-20T01:42:59.588Z,62.16
2022-09-20T01:45:31.097Z,62.44
2022-09-20T01:48:30.231Z,61.62
2022-09-20T01:51:29.640Z,60.96
2022-09-20T01:54:47.890Z,60.85
2022-09-20T01:57:47.921Z,60.98
2022-09-20T02:00:48.903Z,60.28
2022-09-20T02:03:32.392Z,60.26
2022-09-20T02:06:41.052Z,60.62
2022-09-20T02:09:45.211Z,60.70
2022-09-20T02:12:36.667Z,60.26
2022-09-20T02:15:25.335Z,60.06
2022-09-20T02:18:21.110Z,60.04
2022-09-20T02:20:57.093Z,60.02
2022-09-20T02:23:29.250Z,59.96
2022-09-20T02:26:23.030Z,59.30
2022-09-20T02:28:57.029Z,59.06
2022-09-20T02:31:31.396Z,62.58
2022-09-20T02:34:25.249Z,65.15
2022-09-20T02:37:20.016Z,63.46
2022-09-20T02:40:27.032Z,61.67
2022-09-20T02:43:24.928Z,61.43
2022-09-20T02:45:53.111Z,61.43
2022-09-20T02:48:34.339Z,60.92
2022-09-20T02:51:16.950Z,61.05
2022-09-20T02:54:13.964Z,60.89
2022-09-20T02:57:01.425Z,60.73
2022-09-20T02:59:40.769Z,61.55
2022-09-20T03:02:33.689Z,62.20
2022-09-20T03:05:34.757Z,62.37
2022-09-20T03:08:36.127Z,62.05
2022-09-20T03:11:33.357Z,61.85
2022-09-20T03:14:24.902Z,61.91
2022-09-20T03:17:14.982Z,61.98
2022-09-20T03:20:06.299Z,61.83
2022-09-20T03:22:57.310Z,61.75
2022-09-20T03:25:28.555Z,61.93
2022-09-20T03:28:06.667Z,62.19
2022-09-20T03:30:53.571Z,62.31
2022-09-20T03:33:27.550Z,62.27
2022-09-20T03:36:17.769Z,62.12
2022-09-20T03:39:20.280Z,62.25
2022-09-20T03:42:29.596Z,62.04
2022-09-20T03:45:29.128Z,61.76
2022-09-20T03:48:00.237Z,62.28
2022-09-20T03:50:38.360Z,62.65
2022-09-20T03:53:24.850Z,63.29
2022-09-20T03:55:59.157Z,63.68
2022-09-20T03:59:12.093Z,64.30
2022-09-20T04:01:51.368Z,64.57
2022-09-20T04:04:41.105Z,65.47
2022-09-20T04:07:36.130Z,65.94
2022-09-20T04:10:30.097Z,67.10
2022-09-20T04:13:17.937Z,67.60
2022-09-20T04:16:30.895Z,67.62
2022-09-20T04:19:08.954Z,66.78
2022-09-20T04:21:49.774Z,66.23
2022-09-20T04:24:22.321Z,65.98
2022-09-20T04:27:17.726Z,65.82
2022-09-20T04:30:18.721Z,65.11
2022-09-20T04:33:08.751Z,64.42
2022-09-20T04:36:04.668Z,64.47
2022-09-20T04:38:35.919Z,64.15
2022-09-20T04:41:50.079Z,64.30
2022-09-20T04:45:02.891Z,65.05
2022-09-20T04:47:40.130Z,64.99
2022-09-20T04:50:30.701Z,64.92
2022-09-20T04:53:06.536Z,64.74
2022-09-20T04:55:40.946Z,64.53
2022-09-20T04:58:55.274Z,64.59
2022-09-20T05:01:23.804Z,64.72
2022-09-20T05:04:14.085Z,65.11
2022-09-20T05:07:04.646Z,64.80
2022-09-20T05:09:51.361Z,65.29
2022-09-20T05:12:46.498Z,65.81
2022-09-20T05:15:44.164Z,65.53
2022-09-20T05:18:51.168Z,66.40
2022-09-20T05:22:14.231Z,67.81
2022-09-20T05:25:01.438Z,67.95
2022-09-20T05:27:48.056Z,68.31
2022-09-20T05:30:32.740Z,67.29
2022-09-20T05:33:42.084Z,66.64
2022-09-20T05:36:50.751Z,66.51
2022-09-20T05:39:52.081Z,66.13
2022-09-20T05:42:56.609Z,66.05
2022-09-20T05:45:51.595Z,66.07
2022-09-20T05:49:00.154Z,65.86
2022-09-20T05:52:14.067Z,65.79
2022-09-20T05:55:15.246Z,65.38
2022-09-20T05:58:21.481Z,64.80
2022-09-20T06:01:01.304Z,64.87
2022-09-20T06:03:55.991Z,63.78
2022-09-20T06:06:40.007Z,63.62
2022-09-20T06:09:37.078Z,63.81
2022-09-20T06:12:37.232Z,64.93
2022-09-20T06:15:12.629Z,65.97
2022-09-20T06:18:00.261Z,66.33
2022-09-20T06:20:37.850Z,66.61
2022-09-20T06:23:06.952Z,66.85
2022-09-20T06:25:48.026Z,67.27
2022-09-20T06:28:24.716Z,67.42
2022-09-20T06:30:55.827Z,67.75
2022-09-20T06:33:29.725Z,68.14
2022-09-20T06:36:40.631Z,68.46
2022-09-20T06:39:40.742Z,68.91
2022-09-20T06:42:10.780Z,69.06
2022-09-20T06:44:41.638Z,69.54
2022-09-20T06:47:15.726Z,69.87
2022-09-20T06:49:47.770Z,69.34
2022-09-20T06:52:18.540Z,69.20
2022-09-20T06:54:50.150Z,69.45
2022-09-20T06:57:25.461Z,68.91
2022-09-20T06:59:54.313Z,68.30
2022-09-20T07:02:23.885Z,68.08
2022-09-20T07:04:58.760Z,68.06
2022-09-20T07:07:28.400Z,68.12
2022-09-20T07:09:57.231Z,68.71
2022-09-20T07:12:26.070Z,68.87
2022-09-20T07:14:56.990Z,69.06
2022-09-20T07:17:27.040Z,69.51
2022-09-20T07:19:57.823Z,69.62
2022-09-20T07:22:29.563Z,69.49
2022-09-20T07:25:03.456Z,69.75
2022-09-20T07:27:33.302Z,69.76
2022-09-20T07:30:03.603Z,69.84
2022-09-20T07:32:34.587Z,69.88
2022-09-20T07:35:06.150Z,69.64
2022-09-20T07:37:37.115Z,69.58
2022-09-20T07:40:07.813Z,69.42
2022-09-20T07:42:37.140Z,69.00
2022-09-20T07:45:07.716Z,68.60
2022-09-20T07:47:37.036Z,68.44
2022-09-20T07:50:07.257Z,68.49
2022-09-20T07:52:37.019Z,68.33
2022-09-20T07:55:07.415Z,67.60
2022-09-20T07:57:39.018Z,67.05
2022-09-20T08:00:09.637Z,66.38
2022-09-20T08:02:42.165Z,65.21
2022-09-20T08:05:12.472Z,64.24
2022-09-20T08:07:41.430Z,63.57
2022-09-20T08:10:10.997Z,63.35
2022-09-20T08:15:32.546Z,63.67
2022-09-20T08:18:02.622Z,63.92
2022-09-20T08:20:32.576Z,64.07
2022-09-20T08:23:22.446Z,64.16
2022-09-20T08:25:52.541Z,64.28
2022-09-20T08:28:21.965Z,64.09
2022-09-20T08:30:50.750Z,63.70
2022-09-20T08:33:19.612Z,63.32
2022-09-20T08:35:51.717Z,62.84
2022-09-20T08:41:16.469Z,62.62
2022-09-20T08:43:52.252Z,62.30
2022-09-20T08:46:26.372Z,61.18
2022-09-20T08:48:58.006Z,59.99
2022-09-20T08:51:32.312Z,59.30
2022-09-20T08:54:01.622Z,60.50
2022-09-20T08:56:36.675Z,62.49
2022-09-20T08:59:09.243Z,62.32
2022-09-20T09:01:37.808Z,61.02
2022-09-20T09:04:17.657Z,60.41
2022-09-20T09:06:52.858Z,60.22
2022-09-20T09:09:26.604Z,60.16
2022-09-20T09:11:59.452Z,59.98
2022-09-20T09:15:05.421Z,59.98
2022-09-20T09:17:35.464Z,60.46
2022-09-20T09:20:16.961Z,60.59
2022-09-20T09:22:48.040Z,60.57
2022-09-20T09:25:38.178Z,60.57
2022-09-20T09:28:08.157Z,60.38
2022-09-20T09:30:48.145Z,60.22
2022-09-20T09:33:30.463Z,60.28
2022-09-20T09:36:17.882Z,60.53
2022-09-20T09:38:51.217Z,60.89
2022-09-20T09:41:33.239Z,60.78
2022-09-20T09:44:31.023Z,60.66
2022-09-20T09:47:05.637Z,60.26
2022-09-20T09:49:37.657Z,59.92
2022-09-20T09:52:26.052Z,59.58
2022-09-20T09:55:04.911Z,59.37
2022-09-20T09:58:17.533Z,61.02
2022-09-20T10:00:51.040Z,64.19
2022-09-20T10:03:27.385Z,63.87
2022-09-20T10:06:38.248Z,62.98
2022-09-20T10:09:38.889Z,63.27
2022-09-20T10:12:32.235Z,63.14
2022-09-20T10:15:16.183Z,63.44
2022-09-20T10:18:30.647Z,63.76
2022-09-20T10:21:29.000Z,64.01
2022-09-20T10:24:51.400Z,63.96
2022-09-20T10:27:38.321Z,63.44
2022-09-20T10:30:58.193Z,63.24
2022-09-20T10:33:45.506Z,62.85
2022-09-20T10:36:44.563Z,62.79
2022-09-20T10:52:21.042Z,62.61
2022-09-20T10:55:05.633Z,62.38
2022-09-20T10:57:47.036Z,62.45
2022-09-20T11:00:40.586Z,62.33
2022-09-20T11:03:23.204Z,61.22
2022-09-20T11:06:15.149Z,60.49
2022-09-20T11:08:51.522Z,59.07
2022-09-20T11:11:52.027Z,60.33
2022-09-20T11:14:34.444Z,62.42
2022-09-20T11:17:35.147Z,61.91
2022-09-20T11:20:40.041Z,61.32
2022-09-20T11:23:20.849Z,61.70
2022-09-20T11:25:59.995Z,62.07
2022-09-20T11:28:45.338Z,61.70
2022-09-20T11:31:25.412Z,61.00
2022-09-20T11:34:24.035Z,60.92
2022-09-20T11:37:03.909Z,61.54
2022-09-20T11:39:50.826Z,61.77
2022-09-20T11:42:25.770Z,61.19
2022-09-20T11:44:56.223Z,61.46
2022-09-20T11:47:52.902Z,61.65
2022-09-20T11:50:37.462Z,62.25
2022-09-20T11:53:35.874Z,62.14
2022-09-20T11:56:11.860Z,62.71
2022-09-20T11:58:51.934Z,61.92
2022-09-20T12:01:29.944Z,61.56
2022-09-20T12:04:30.628Z,60.96
2022-09-20T12:07:18.640Z,60.87
2022-09-20T12:10:01.257Z,61.18
2022-09-20T12:12:36.663Z,60.98
2022-09-20T12:15:23.940Z,60.99
2022-09-20T12:17:52.885Z,60.55
2022-09-20T12:20:36.570Z,60.31
2022-09-20T12:23:45.679Z,60.15
2022-09-20T12:26:21.360Z,60.17
2022-09-20T12:28:53.569Z,60.93
2022-09-20T12:31:26.967Z,61.07
2022-09-20T12:34:01.323Z,60.98
2022-09-20T12:36:39.656Z,60.84
2022-09-20T12:39:12.032Z,60.65
2022-09-20T12:41:59.720Z,60.16
2022-09-20T12:44:43.379Z,59.41
2022-09-20T12:47:12.665Z,60.22
2022-09-20T12:50:05.353Z,62.05
2022-09-20T12:52:57.860Z,63.15
2022-09-20T12:55:30.351Z,61.56
2022-09-20T12:58:04.022Z,60.99
2022-09-20T13:00:56.825Z,60.64
2022-09-20T13:04:15.830Z,60.49
2022-09-20T13:06:50.130Z,60.11
2022-09-20T13:09:22.006Z,60.29
2022-09-20T13:12:03.953Z,60.83
2022-09-20T13:14:37.058Z,61.49
2022-09-20T13:17:31.278Z,61.97
2022-09-20T13:20:01.610Z,62.11
2022-09-20T13:22:46.041Z,62.45
2022-09-20T13:25:21.612Z,62.60
2022-09-20T13:28:17.957Z,62.82
2022-09-20T13:30:50.678Z,62.72
2022-09-20T13:33:25.208Z,62.66
2022-09-20T13:35:59.421Z,62.34
2022-09-20T13:38:32.068Z,62.74
2022-09-20T13:41:13.173Z,62.27
2022-09-20T13:43:48.575Z,60.73
2022-09-20T13:46:31.313Z,60.36
2022-09-20T13:49:25.211Z,59.08
2022-09-20T13:51:54.193Z,59.73
2022-09-20T13:54:33.825Z,60.56
2022-09-20T13:57:05.856Z,61.49
2022-09-20T13:59:43.287Z,61.56
2022-09-20T14:02:28.523Z,62.12
2022-09-20T14:05:00.950Z,58.50
2022-09-20T14:07:31.409Z,57.55
2022-09-20T14:10:00.765Z,58.76
2022-09-20T14:12:30.213Z,59.83
2022-09-20T14:14:59.402Z,59.81
2022-09-20T14:17:36.633Z,61.15
2022-09-20T14:20:07.503Z,61.60
2022-09-20T14:22:36.429Z,61.99
2022-09-20T14:25:22.517Z,62.41
2022-09-20T14:28:06.779Z,61.29
2022-09-20T14:30:37.190Z,57.95
2022-09-20T14:33:08.169Z,57.42
2022-09-20T14:35:36.645Z,57.38
2022-09-20T14:38:12.123Z,58.53
2022-09-20T14:40:45.056Z,59.46
2022-09-20T14:43:35.060Z,60.15
2022-09-20T14:46:17.760Z,60.81
2022-09-20T14:48:47.473Z,60.87
2022-09-20T14:51:19.760Z,61.47
2022-09-20T14:54:06.312Z,61.71
2022-09-20T14:56:42.158Z,62.04
2022-09-20T14:59:26.973Z,61.98
2022-09-20T15:02:03.780Z,58.89
2022-09-20T15:04:36.330Z,57.63
2022-09-20T15:07:09.237Z,58.26
2022-09-20T15:09:38.341Z,59.22
2022-09-20T15:12:14.505Z,60.04
2022-09-20T15:14:43.707Z,61.04
2022-09-20T15:17:21.019Z,61.98
2022-09-20T15:19:50.472Z,62.63
2022-09-20T15:22:21.588Z,61.11
2022-09-20T15:24:51.510Z,57.79
2022-09-20T15:27:28.492Z,58.10
2022-09-20T15:29:57.568Z,59.94
2022-09-20T15:32:27.566Z,61.18
2022-09-20T15:34:57.102Z,62.48
2022-09-20T15:37:26.923Z,62.16
2022-09-20T15:39:55.684Z,60.11
2022-09-20T15:42:24.737Z,59.50
2022-09-20T15:44:53.471Z,59.23
2022-09-20T15:47:22.907Z,58.68
2022-09-20T15:49:52.985Z,60.04
2022-09-20T15:52:25.354Z,62.70
2022-09-20T15:54:55.431Z,62.28
2022-09-20T15:57:25.683Z,60.87
2022-09-20T15:59:54.630Z,60.28
2022-09-20T16:02:23.656Z,59.88
2022-09-20T16:04:56.431Z,59.88
2022-09-20T16:07:26.222Z,60.49
2022-09-20T16:09:56.791Z,60.01
2022-09-20T16:12:29.338Z,60.64
2022-09-20T16:14:59.658Z,61.02
2022-09-20T16:17:48.901Z,61.25
2022-09-20T16:20:18.229Z,62.02
2022-09-20T16:22:49.259Z,62.26
2022-09-20T16:25:20.110Z,62.50
2022-09-20T16:27:56.506Z,63.16
2022-09-20T16:30:26.771Z,62.11
2022-09-20T16:32:56.626Z,61.38
2022-09-20T16:35:25.635Z,60.15
2022-09-20T16:37:56.360Z,60.45
2022-09-20T16:40:25.372Z,61.08
2022-09-20T16:42:58.963Z,61.67
2022-09-20T16:45:34.798Z,62.52
2022-09-20T16:48:08.769Z,63.98
2022-09-20T16:50:47.581Z,65.05
2022-09-20T16:53:19.819Z,64.74
2022-09-20T16:55:49.940Z,64.59
2022-09-20T16:58:20.275Z,64.77
2022-09-20T17:00:50.336Z,65.09
2022-09-20T17:03:19.604Z,65.95
2022-09-20T17:05:54.990Z,66.16
2022-09-20T17:08:29.604Z,66.06
2022-09-20T17:11:03.275Z,66.13
2022-09-20T17:13:37.039Z,66.23
2022-09-20T17:16:18.663Z,66.57
2022-09-20T17:19:08.616Z,66.55
2022-09-20T17:21:53.403Z,64.75
2022-09-20T17:24:25.829Z,62.13
2022-09-20T17:26:55.648Z,61.00
2022-09-20T17:29:28.291Z,59.79
2022-09-20T17:32:03.439Z,59.94
2022-09-20T17:34:47.309Z,59.43
2022-09-20T17:37:25.600Z,60.53
2022-09-20T17:39:55.466Z,63.52
2022-09-20T17:42:29.389Z,63.60
2022-09-20T17:45:02.660Z,63.07
2022-09-20T17:47:34.673Z,63.34
2022-09-20T17:50:05.849Z,64.03
2022-09-20T17:52:39.325Z,65.13
2022-09-20T17:55:13.435Z,64.97
2022-09-20T17:57:48.102Z,64.18
2022-09-20T18:00:21.395Z,63.92
2022-09-20T18:02:52.875Z,63.12
2022-09-20T18:05:25.177Z,62.54
2022-09-20T18:07:57.487Z,62.37
2022-09-20T18:10:31.418Z,62.66
2022-09-20T18:13:04.891Z,62.73
2022-09-20T18:15:40.560Z,63.01
2022-09-20T18:18:23.437Z,63.15
2022-09-20T18:20:58.547Z,62.79
2022-09-20T18:23:30.266Z,63.12
2022-09-20T18:26:24.009Z,64.01
2022-09-20T18:29:14.472Z,64.67
2022-09-20T18:31:52.133Z,65.14
2022-09-20T18:34:33.648Z,65.19
2022-09-20T18:37:05.102Z,64.94
2022-09-20T18:39:38.916Z,64.45
2022-09-20T18:42:11.991Z,64.62
2022-09-20T18:44:44.233Z,64.73
2022-09-20T18:47:19.641Z,64.51
2022-09-20T18:49:54.191Z,64.28
2022-09-20T18:52:28.253Z,64.35
2022-09-20T18:55:07.685Z,64.34
2022-09-20T19:00:33.628Z,64.92
2022-09-20T19:03:38.189Z,64.94
2022-09-20T19:06:22.544Z,65.08
2022-09-20T19:09:12.283Z,65.35
2022-09-20T19:11:54.290Z,65.32
2022-09-20T19:15:01.732Z,65.43
2022-09-20T19:17:52.105Z,66.00
2022-09-20T19:20:47.236Z,66.12
2022-09-20T19:23:50.895Z,66.37
2022-09-20T19:26:37.310Z,66.13
2022-09-20T19:29:34.679Z,65.10
2022-09-20T19:32:30.213Z,64.30
2022-09-20T19:35:46.232Z,64.10
2022-09-20T19:38:41.937Z,64.83
2022-09-20T19:41:58.775Z,65.49
2022-09-20T19:45:15.674Z,65.76
2022-09-20T19:48:23.197Z,65.89
2022-09-20T19:51:12.117Z,65.63
2022-09-20T19:53:53.162Z,64.84
2022-09-20T19:57:07.541Z,64.65
2022-09-20T19:59:57.327Z,64.76
2022-09-20T20:02:44.293Z,65.03
2022-09-20T20:05:31.528Z,65.34
2022-09-20T20:08:32.224Z,64.66
2022-09-20T20:11:46.051Z,64.78
2022-09-20T20:14:37.742Z,65.21
2022-09-20T20:17:36.416Z,64.72
2022-09-20T20:20:39.132Z,64.72
2022-09-20T20:23:34.140Z,65.75
2022-09-20T20:26:12.884Z,64.62
2022-09-20T20:28:51.662Z,64.33
2022-09-20T20:31:35.707Z,64.78
2022-09-20T20:34:18.283Z,65.57
2022-09-20T20:37:06.358Z,63.62
2022-09-20T20:39:47.144Z,64.84
2022-09-20T20:42:23.865Z,65.11
2022-09-20T20:44:56.926Z,65.40
2022-09-20T20:47:29.223Z,65.32
2022-09-20T20:49:58.099Z,66.32
2022-09-20T20:52:27.545Z,67.53
2022-09-20T20:54:57.621Z,65.29
2022-09-20T20:57:28.357Z,64.23
2022-09-20T20:59:56.930Z,63.87
2022-09-20T21:02:25.340Z,64.06
2022-09-20T21:04:54.203Z,63.38
2022-09-20T21:07:22.995Z,63.48
2022-09-20T21:09:51.370Z,63.43
2022-09-20T21:12:19.553Z,63.74
2022-09-20T21:14:48.448Z,63.87
2022-09-20T21:17:17.437Z,64.05
2022-09-20T21:19:46.228Z,64.64
2022-09-20T21:22:15.022Z,64.10
2022-09-20T21:24:43.215Z,64.83
2022-09-20T21:27:11.715Z,65.26
2022-09-20T21:29:40.809Z,65.50
2022-09-20T21:32:09.878Z,64.55
2022-09-20T21:34:38.670Z,64.29
2022-09-20T21:37:07.486Z,64.60
2022-09-20T21:39:35.839Z,64.55
2022-09-20T21:42:04.636Z,64.05
2022-09-20T21:44:33.015Z,63.39
2022-09-20T21:47:01.303Z,62.80
2022-09-20T21:49:29.598Z,62.31
2022-09-20T21:51:57.865Z,62.10
2022-09-20T21:54:26.129Z,62.34
2022-09-20T21:56:55.919Z,62.77
2022-09-20T21:59:24.539Z,63.00
2022-09-20T22:01:55.632Z,62.49
2022-09-20T22:04:24.068Z,62.65
2022-09-20T22:06:53.076Z,62.77
2022-09-20T22:09:21.650Z,62.87
2022-09-20T22:11:50.030Z,63.06
2022-09-20T22:14:20.256Z,63.70
2022-09-20T22:16:51.485Z,64.10
2022-09-20T22:19:20.496Z,63.77
2022-09-20T22:24:36.890Z,64.26
2022-09-20T22:27:05.201Z,63.44
2022-09-20T22:29:33.380Z,63.21
2022-09-20T22:32:02.067Z,63.48
2022-09-20T22:34:30.240Z,62.50
2022-09-20T22:36:58.415Z,62.21
2022-09-20T22:39:26.592Z,62.44
2022-09-20T22:41:54.801Z,63.72
2022-09-20T22:44:22.848Z,64.22
2022-09-20T22:46:51.544Z,64.27
2022-09-20T22:49:19.715Z,64.14
2022-09-20T22:51:47.987Z,63.63
2022-09-20T22:54:16.269Z,64.13
2022-09-20T22:56:44.662Z,64.69
2022-09-20T22:59:14.393Z,64.64
2022-09-20T23:01:47.561Z,64.46
2022-09-20T23:04:18.737Z,64.41
2022-09-20T23:06:54.959Z,64.30
2022-09-20T23:09:25.507Z,64.83
2022-09-20T23:11:54.208Z,65.26
2022-09-20T23:14:22.988Z,65.64
2022-09-20T23:16:51.426Z,66.09
2022-09-20T23:19:19.667Z,66.25
2022-09-20T23:21:48.082Z,66.20
2022-09-20T23:24:16.780Z,66.10
2022-09-20T23:26:45.403Z,65.99
2022-09-20T23:29:16.398Z,66.03
2022-09-20T23:31:47.208Z,66.64
2022-09-20T23:34:17.654Z,67.39
2022-09-20T23:40:27.423Z,67.07
2022-09-20T23:42:55.565Z,66.13
2022-09-20T23:45:23.646Z,65.25
2022-09-20T23:47:51.930Z,64.83
2022-09-20T23:50:20.096Z,64.58
2022-09-20T23:52:48.283Z,64.88
2022-09-20T23:55:16.558Z,65.12
2022-09-20T23:57:45.248Z,64.48
